createdAt,value
2024-03-05T00:00:25.174Z,42.12
2024-03-05T00:03:16.684Z,42.19
2024-03-05T00:05:46.655Z,42.14
2024-03-05T00:08:16.923Z,42.08
2024-03-05T00:10:46.614Z,42.03
2024-03-05T00:13:17.973Z,42.14
2024-03-05T00:15:46.427Z,42.15
2024-03-05T00:18:16.095Z,42.19
2024-03-05T00:20:44.987Z,42.25
2024-03-05T00:23:15.983Z,42.10
2024-03-05T00:25:45.107Z,42.23
2024-03-05T00:28:16.919Z,42.29
2024-03-05T00:30:47.175Z,42.24
2024-03-05T00:33:18.124Z,42.29
2024-03-05T00:35:47.996Z,42.31
2024-03-05T00:38:25.256Z,42.39
2024-03-05T00:41:04.457Z,42.25
2024-03-05T00:43:34.088Z,42.34
2024-03-05T00:46:04.382Z,42.25
2024-03-05T00:48:33.043Z,42.34
2024-03-05T00:51:04.790Z,42.36
2024-03-05T00:53:33.110Z,42.43
2024-03-05T00:56:04.140Z,42.50
2024-03-05T00:58:34.000Z,42.45
2024-03-05T01:01:03.755Z,42.43
2024-03-05T01:03:32.062Z,42.49
2024-03-05T01:06:01.734Z,42.47
2024-03-05T01:08:31.366Z,42.48
2024-03-05T01:11:01.049Z,42.39
2024-03-05T01:13:30.273Z,42.45
2024-03-05T01:16:01.931Z,42.38
2024-03-05T01:18:30.342Z,42.39
2024-03-05T01:20:59.932Z,42.23
2024-03-05T01:23:28.194Z,42.48
2024-03-05T01:25:58.387Z,42.49
2024-03-05T01:28:28.007Z,42.59
2024-03-05T01:31:01.168Z,42.51
2024-03-05T01:33:30.338Z,42.49
2024-03-05T01:36:00.281Z,42.42
2024-03-05T01:38:29.504Z,42.58
2024-03-05T01:41:00.757Z,42.52
2024-03-05T01:43:29.777Z,42.35
2024-03-05T01:46:00.450Z,42.53
2024-03-05T01:48:30.430Z,42.46
2024-03-05T01:51:01.645Z,42.50
2024-03-05T01:53:30.555Z,42.45
2024-03-05T01:56:01.476Z,42.44
2024-03-05T01:58:30.665Z,42.35
2024-03-05T02:01:02.632Z,42.48
2024-03-05T02:03:32.306Z,42.50
2024-03-05T02:06:06.988Z,42.38
2024-03-05T02:08:37.058Z,42.40
2024-03-05T02:11:09.643Z,42.36
2024-03-05T02:13:40.713Z,42.50
2024-03-05T02:16:12.280Z,42.34
2024-03-05T02:18:40.650Z,42.33
2024-03-05T02:21:20.553Z,42.33
2024-03-05T02:23:52.498Z,42.50
2024-03-05T02:26:24.659Z,42.51
2024-03-05T02:28:55.609Z,42.48
2024-03-05T02:31:24.872Z,42.53
2024-03-05T02:33:58.114Z,42.50
2024-03-05T02:36:26.435Z,42.67
2024-03-05T02:38:56.211Z,42.60
2024-03-05T02:41:24.665Z,42.71
2024-03-05T02:43:56.239Z,42.61
2024-03-05T02:46:25.236Z,42.47
2024-03-05T02:48:56.261Z,42.69
2024-03-05T02:51:26.280Z,42.68
2024-03-05T02:53:57.007Z,42.70
2024-03-05T02:56:25.298Z,42.77
2024-03-05T02:58:55.001Z,42.86
2024-03-05T03:01:23.791Z,42.96
2024-03-05T03:03:53.391Z,42.95
2024-03-05T03:06:21.731Z,42.92
2024-03-05T03:08:52.709Z,42.95
2024-03-05T03:11:23.529Z,43.06
2024-03-05T03:13:53.552Z,43.09
2024-03-05T03:16:24.101Z,43.07
2024-03-05T03:18:56.965Z,43.18
2024-03-05T03:21:25.817Z,43.14
2024-03-05T03:23:56.899Z,43.13
2024-03-05T03:26:27.450Z,43.23
2024-03-05T03:28:58.847Z,43.21
2024-03-05T03:31:27.300Z,43.24
2024-03-05T03:33:56.829Z,43.27
2024-03-05T03:36:27.248Z,43.30
2024-03-05T03:38:57.406Z,43.39
2024-03-05T03:41:28.767Z,43.26
2024-03-05T03:43:59.224Z,43.32
2024-03-05T03:46:28.798Z,43.39
2024-03-05T03:48:58.391Z,43.44
2024-03-05T03:51:27.678Z,43.60
2024-03-05T03:53:57.320Z,43.57
2024-03-05T03:56:26.439Z,43.53
2024-03-05T03:58:57.038Z,43.65
2024-03-05T04:01:27.169Z,43.59
2024-03-05T04:03:57.528Z,43.64
2024-03-05T04:06:26.130Z,43.57
2024-03-05T04:08:57.503Z,43.70
2024-03-05T04:11:28.046Z,43.73
2024-03-05T04:14:00.593Z,43.81
2024-03-05T04:16:33.397Z,43.80
2024-03-05T04:19:04.623Z,43.79
2024-03-05T04:21:45.699Z,43.70
2024-03-05T04:24:16.944Z,43.82
2024-03-05T04:26:45.762Z,43.67
2024-03-05T04:29:15.264Z,43.71
2024-03-05T04:31:50.620Z,43.90
2024-03-05T04:34:24.958Z,43.85
2024-03-05T04:36:57.919Z,43.81
2024-03-05T04:39:29.617Z,43.83
2024-03-05T04:42:00.178Z,43.70
2024-03-05T04:44:30.183Z,43.76
2024-03-05T04:46:58.483Z,43.89
2024-03-05T04:49:28.969Z,43.89
2024-03-05T04:51:58.493Z,43.84
2024-03-05T04:54:30.293Z,43.70
2024-03-05T04:56:58.583Z,43.76
2024-03-05T04:59:29.336Z,43.55
2024-03-05T05:01:57.651Z,44.15
2024-03-05T05:04:27.303Z,44.42
2024-03-05T05:06:56.818Z,44.34
2024-03-05T05:09:26.418Z,44.37
2024-03-05T05:11:55.932Z,44.33
2024-03-05T05:14:25.643Z,44.43
2024-03-05T05:16:56.365Z,44.47
2024-03-05T05:19:28.514Z,44.47
2024-03-05T05:21:58.691Z,44.50
2024-03-05T05:24:30.552Z,44.42
2024-03-05T05:26:59.235Z,44.42
2024-03-05T05:29:37.056Z,44.39
2024-03-05T05:32:13.085Z,44.47
2024-03-05T05:34:41.437Z,44.48
2024-03-05T05:37:11.890Z,44.47
2024-03-05T05:39:41.510Z,44.39
2024-03-05T05:42:11.314Z,44.41
2024-03-05T05:44:39.586Z,44.38
2024-03-05T05:47:11.912Z,44.45
2024-03-05T05:49:41.442Z,44.49
2024-03-05T05:52:12.189Z,44.46
2024-03-05T05:54:42.099Z,44.40
2024-03-05T05:57:11.717Z,44.31
2024-03-05T05:59:40.619Z,44.41
2024-03-05T06:02:12.838Z,44.48
2024-03-05T06:04:42.864Z,44.41
2024-03-05T06:07:12.976Z,44.43
2024-03-05T06:09:42.873Z,44.26
2024-03-05T06:12:11.675Z,44.37
2024-03-05T06:14:40.034Z,44.37
2024-03-05T06:17:11.148Z,44.39
2024-03-05T06:19:40.521Z,44.34
2024-03-05T06:22:14.103Z,44.27
2024-03-05T06:24:51.515Z,44.36
2024-03-05T06:27:19.852Z,44.26
2024-03-05T06:29:48.489Z,44.16
2024-03-05T06:32:19.721Z,44.23
2024-03-05T06:34:49.355Z,44.15
2024-03-05T06:37:19.545Z,44.19
2024-03-05T06:39:50.697Z,44.15
2024-03-05T06:42:19.560Z,44.16
2024-03-05T06:44:51.698Z,43.99
2024-03-05T06:47:19.982Z,44.12
2024-03-05T06:49:52.414Z,44.02
2024-03-05T06:52:21.022Z,44.03
2024-03-05T07:07:48.334Z,43.62
2024-03-05T07:10:17.010Z,43.60
2024-03-05T07:12:46.996Z,43.60
2024-03-05T07:15:16.931Z,43.34
2024-03-05T07:17:48.391Z,43.18
2024-03-05T07:20:16.865Z,43.21
2024-03-05T07:22:49.407Z,42.96
2024-03-05T07:25:19.009Z,43.09
2024-03-05T07:27:50.857Z,42.94
2024-03-05T07:30:22.143Z,42.80
2024-03-05T07:32:51.721Z,42.66
2024-03-05T07:35:21.061Z,42.51
2024-03-05T07:37:50.709Z,42.47
2024-03-05T07:40:21.784Z,42.33
2024-03-05T07:42:55.605Z,42.10
2024-03-05T07:45:24.601Z,41.98
2024-03-05T07:47:55.457Z,41.90
2024-03-05T07:50:25.660Z,41.69
2024-03-05T07:52:55.399Z,41.47
2024-03-05T07:55:31.904Z,41.36
2024-03-05T07:58:06.123Z,41.18
2024-03-05T08:00:35.939Z,40.98
2024-03-05T08:03:06.901Z,40.83
2024-03-05T08:05:36.222Z,40.61
2024-03-05T08:08:07.387Z,40.28
2024-03-05T08:10:35.786Z,40.19
2024-03-05T08:13:08.839Z,39.97
2024-03-05T08:15:37.190Z,39.77
2024-03-05T08:18:08.051Z,39.61
2024-03-05T08:20:36.328Z,39.42
2024-03-05T08:23:05.939Z,39.14
2024-03-05T08:25:36.552Z,39.05
2024-03-05T08:28:06.435Z,38.81
2024-03-05T08:30:34.757Z,38.60
2024-03-05T08:33:06.525Z,38.37
2024-03-05T08:35:34.934Z,38.26
2024-03-05T08:38:06.728Z,38.10
2024-03-05T08:40:35.062Z,37.89
2024-03-05T08:43:06.146Z,37.73
2024-03-05T08:45:36.401Z,37.53
2024-03-05T08:48:07.499Z,37.40
2024-03-05T08:50:36.609Z,37.14
2024-03-05T08:53:05.524Z,37.31
2024-03-05T08:55:35.921Z,37.03
2024-03-05T08:58:05.951Z,36.79
2024-03-05T09:00:42.509Z,36.76
2024-03-05T09:03:15.273Z,36.51
2024-03-05T09:05:47.806Z,36.39
2024-03-05T09:08:18.061Z,36.27
2024-03-05T09:10:46.419Z,36.19
2024-03-05T09:13:16.592Z,35.99
2024-03-05T09:15:48.529Z,35.62
2024-03-05T09:18:19.736Z,35.61
2024-03-05T09:20:49.934Z,35.43
2024-03-05T09:23:20.447Z,35.21
2024-03-05T09:25:51.007Z,35.02
2024-03-05T09:28:20.636Z,34.92
2024-03-05T09:30:49.645Z,34.76
2024-03-05T09:33:19.326Z,34.55
2024-03-05T09:35:47.826Z,34.33
2024-03-05T09:38:18.395Z,34.23
2024-03-05T09:40:47.905Z,33.99
2024-03-05T09:43:23.146Z,33.70
2024-03-05T09:46:02.872Z,33.68
2024-03-05T09:48:34.975Z,33.50
2024-03-05T09:51:09.305Z,33.59
2024-03-05T09:53:39.004Z,33.35
2024-03-05T09:56:09.531Z,33.48
2024-03-05T09:58:40.567Z,33.22
2024-03-05T10:01:10.202Z,33.03
2024-03-05T10:03:41.294Z,32.87
2024-03-05T10:06:15.638Z,32.76
2024-03-05T10:08:46.733Z,32.63
2024-03-05T10:11:18.460Z,32.65
2024-03-05T10:13:48.275Z,32.45
2024-03-05T10:16:22.659Z,32.32
2024-03-05T10:18:52.948Z,32.43
2024-03-05T10:21:23.803Z,32.36
2024-03-05T10:24:03.346Z,32.10
2024-03-05T10:26:35.277Z,32.06
2024-03-05T10:29:06.512Z,32.03
2024-03-05T10:31:38.677Z,31.89
2024-03-05T10:34:09.523Z,31.87
2024-03-05T10:36:40.834Z,31.85
2024-03-05T10:39:11.909Z,31.72
2024-03-05T10:41:50.674Z,31.55
2024-03-05T10:44:22.609Z,31.56
2024-03-05T10:46:53.173Z,31.54
2024-03-05T10:49:23.345Z,31.41
2024-03-05T10:51:58.483Z,31.59
2024-03-05T10:54:32.485Z,31.65
2024-03-05T10:57:01.696Z,31.64
2024-03-05T10:59:32.834Z,31.67
2024-03-05T11:02:04.649Z,31.75
2024-03-05T11:04:36.692Z,31.44
2024-03-05T11:07:06.001Z,31.40
2024-03-05T11:09:40.145Z,31.68
2024-03-05T11:12:16.281Z,31.25
2024-03-05T11:14:48.276Z,31.18
2024-03-05T11:17:19.348Z,31.45
2024-03-05T11:19:49.457Z,31.35
2024-03-05T11:22:28.010Z,31.17
2024-03-05T11:25:07.520Z,31.13
2024-03-05T11:27:38.552Z,30.95
2024-03-05T11:30:17.467Z,30.99
2024-03-05T11:32:50.129Z,30.82
2024-03-05T11:35:22.816Z,30.66
2024-03-05T11:37:57.259Z,30.72
2024-03-05T11:40:36.818Z,30.49
2024-03-05T11:43:06.383Z,30.59
2024-03-05T11:45:49.647Z,30.42
2024-03-05T11:48:22.011Z,30.35
2024-03-05T11:50:56.240Z,30.33
2024-03-05T11:53:28.562Z,30.34
2024-03-05T11:56:07.231Z,30.20
2024-03-05T11:58:36.887Z,30.08
2024-03-05T12:01:08.721Z,29.98
2024-03-05T12:03:39.696Z,29.89
2024-03-05T12:06:08.362Z,29.89
2024-03-05T12:08:39.114Z,29.84
2024-03-05T12:11:07.847Z,29.75
2024-03-05T12:13:38.362Z,29.65
2024-03-05T12:16:12.185Z,29.54
2024-03-05T12:18:42.483Z,29.41
2024-03-05T12:21:12.981Z,29.47
2024-03-05T12:23:45.404Z,29.27
2024-03-05T12:26:14.748Z,29.22
2024-03-05T12:28:49.987Z,29.18
2024-03-05T12:31:20.160Z,29.16
2024-03-05T12:33:51.066Z,29.03
2024-03-05T12:36:23.216Z,29.01
2024-03-05T12:38:52.941Z,28.88
2024-03-05T12:41:21.590Z,28.96
2024-03-05T12:43:54.501Z,28.83
2024-03-05T12:46:25.018Z,28.84
2024-03-05T12:49:00.091Z,28.79
2024-03-05T12:51:33.252Z,28.73
2024-03-05T12:54:09.030Z,28.82
2024-03-05T12:56:46.339Z,28.66
2024-03-05T12:59:19.019Z,28.63
2024-03-05T13:01:47.367Z,28.59
2024-03-05T13:04:18.309Z,28.55
2024-03-05T13:06:48.708Z,28.57
2024-03-05T13:09:23.115Z,28.56
2024-03-05T13:11:54.453Z,28.49
2024-03-05T13:14:25.119Z,28.70
2024-03-05T13:16:55.133Z,28.75
2024-03-05T13:19:25.016Z,28.73
2024-03-05T13:21:56.599Z,28.76
2024-03-05T13:24:25.878Z,28.75
2024-03-05T13:26:55.590Z,28.79
2024-03-05T13:29:26.887Z,28.89
2024-03-05T13:31:58.737Z,28.76
2024-03-05T13:34:29.226Z,28.79
2024-03-05T13:36:58.912Z,28.77
2024-03-05T13:39:27.396Z,28.82
2024-03-05T13:41:59.415Z,28.73
2024-03-05T13:44:28.417Z,28.61
2024-03-05T13:47:00.824Z,28.68
2024-03-05T13:49:33.467Z,28.57
2024-03-05T13:52:01.891Z,28.46
2024-03-05T13:54:33.484Z,28.53
2024-03-05T13:57:03.122Z,28.42
2024-03-05T13:59:32.691Z,28.46
2024-03-05T14:02:02.111Z,28.40
2024-03-05T14:04:32.376Z,28.24
2024-03-05T14:07:01.075Z,28.35
2024-03-05T14:09:31.302Z,28.21
2024-03-05T14:11:59.657Z,28.17
2024-03-05T14:14:29.794Z,28.16
2024-03-05T14:16:58.146Z,28.01
2024-03-05T14:19:29.543Z,27.96
2024-03-05T14:21:59.130Z,28.06
2024-03-05T14:24:30.157Z,28.01
2024-03-05T14:26:58.466Z,27.99
2024-03-05T14:29:28.559Z,27.96
2024-03-05T14:31:57.340Z,27.94
2024-03-05T14:34:30.640Z,27.98
2024-03-05T14:37:00.845Z,28.00
2024-03-05T14:39:33.618Z,28.06
2024-03-05T14:42:03.362Z,28.10
2024-03-05T14:44:33.019Z,28.22
2024-03-05T14:47:02.741Z,28.31
2024-03-05T14:49:32.915Z,28.38
2024-03-05T14:52:01.376Z,28.35
2024-03-05T14:54:33.437Z,28.31
2024-03-05T14:57:01.721Z,28.33
2024-03-05T14:59:30.494Z,28.41
2024-03-05T15:01:59.839Z,28.33
2024-03-05T15:04:31.082Z,28.40
2024-03-05T15:06:59.480Z,28.34
2024-03-05T15:09:30.074Z,28.27
2024-03-05T15:11:58.469Z,28.39
2024-03-05T15:14:28.084Z,28.38
2024-03-05T15:16:57.779Z,28.30
2024-03-05T15:19:27.403Z,28.30
2024-03-05T15:21:58.941Z,28.25
2024-03-05T15:24:30.757Z,28.27
2024-03-05T15:27:05.358Z,28.26
2024-03-05T15:29:37.963Z,28.29
2024-03-05T15:32:06.622Z,28.36
2024-03-05T15:34:37.555Z,28.44
2024-03-05T15:37:09.965Z,28.37
2024-03-05T15:39:41.718Z,28.47
2024-03-05T15:42:10.468Z,27.83
2024-03-05T15:44:40.116Z,27.89
2024-03-05T15:47:08.780Z,28.22
2024-03-05T15:49:38.407Z,28.30
2024-03-05T15:52:09.613Z,28.28
2024-03-05T15:54:40.733Z,28.26
2024-03-05T15:57:10.693Z,28.34
2024-03-05T15:59:40.833Z,28.42
2024-03-05T16:02:10.047Z,28.56
2024-03-05T16:05:01.723Z,28.82
2024-03-05T16:07:31.865Z,28.83
2024-03-05T16:10:00.250Z,29.10
2024-03-05T16:12:30.971Z,29.20
2024-03-05T16:14:59.807Z,29.20
2024-03-05T16:17:29.423Z,29.31
2024-03-05T16:19:58.268Z,29.31
2024-03-05T16:22:28.807Z,29.41
2024-03-05T16:24:58.028Z,29.51
2024-03-05T16:27:29.578Z,29.75
2024-03-05T16:29:57.805Z,29.89
2024-03-05T16:32:29.268Z,29.91
2024-03-05T16:34:57.567Z,29.81
2024-03-05T16:37:30.065Z,30.19
2024-03-05T16:40:03.820Z,30.17
2024-03-05T16:42:36.909Z,30.32
2024-03-05T16:45:09.781Z,30.40
2024-03-05T16:47:39.210Z,30.67
2024-03-05T16:50:11.025Z,30.65
2024-03-05T16:52:43.261Z,30.86
2024-03-05T16:55:16.387Z,30.83
2024-03-05T16:57:46.582Z,30.96
2024-03-05T17:00:18.195Z,31.06
2024-03-05T17:02:53.003Z,31.09
2024-03-05T17:05:25.192Z,31.08
2024-03-05T17:07:56.118Z,31.01
2024-03-05T17:10:26.215Z,31.10
2024-03-05T17:12:59.869Z,31.41
2024-03-05T17:15:29.544Z,31.40
2024-03-05T17:18:04.175Z,31.34
2024-03-05T17:20:35.928Z,31.57
2024-03-05T17:23:05.306Z,31.58
2024-03-05T17:25:34.890Z,31.57
2024-03-05T17:28:03.936Z,31.76
2024-03-05T17:30:34.088Z,31.78
2024-03-05T17:33:04.034Z,32.05
2024-03-05T17:35:36.014Z,32.08
2024-03-05T17:38:06.145Z,32.04
2024-03-05T17:40:35.845Z,32.23
2024-03-05T17:43:05.212Z,32.36
2024-03-05T17:45:35.914Z,32.34
2024-03-05T17:48:07.308Z,32.40
2024-03-05T17:50:38.986Z,32.65
2024-03-05T17:53:07.477Z,32.75
2024-03-05T17:55:37.474Z,32.73
2024-03-05T17:58:06.775Z,32.81
2024-03-05T18:00:35.599Z,32.80
2024-03-05T18:03:04.383Z,32.82
2024-03-05T18:05:34.481Z,32.93
2024-03-05T18:08:05.404Z,33.06
2024-03-05T18:10:37.228Z,33.00
2024-03-05T18:13:05.853Z,32.97
2024-03-05T18:15:36.666Z,33.01
2024-03-05T18:18:06.125Z,33.07
2024-03-05T18:20:36.520Z,33.16
2024-03-05T18:23:06.437Z,33.19
2024-03-05T18:25:38.549Z,33.17
2024-03-05T18:28:09.732Z,33.28
2024-03-05T18:30:41.292Z,33.33
2024-03-05T18:33:10.230Z,33.39
2024-03-05T18:35:40.020Z,33.42
2024-03-05T18:40:44.473Z,33.55
2024-03-05T18:43:13.034Z,33.52
2024-03-05T18:45:42.645Z,33.69
2024-03-05T18:48:11.333Z,33.72
2024-03-05T18:50:41.839Z,33.69
2024-03-05T18:53:12.745Z,33.74
2024-03-05T18:55:42.738Z,33.85
2024-03-05T18:58:11.030Z,33.90
2024-03-05T19:00:41.882Z,33.96
2024-03-05T19:03:10.684Z,33.91
2024-03-05T19:05:41.310Z,33.91
2024-03-05T19:08:11.040Z,34.03
2024-03-05T19:10:41.286Z,34.02
2024-03-05T19:13:09.772Z,34.06
2024-03-05T19:15:39.316Z,34.01
2024-03-05T19:18:08.936Z,34.08
2024-03-05T19:20:39.691Z,34.12
2024-03-05T19:23:08.571Z,34.11
2024-03-05T19:25:40.631Z,34.10
2024-03-05T19:28:08.907Z,34.23
2024-03-05T19:30:38.528Z,34.22
2024-03-05T19:33:07.834Z,34.24
2024-03-05T19:35:40.184Z,34.31
2024-03-05T19:38:08.590Z,34.31
2024-03-05T19:40:39.019Z,34.19
2024-03-05T19:43:08.027Z,34.28
2024-03-05T19:45:38.001Z,34.33
2024-03-05T19:48:08.582Z,34.39
2024-03-05T19:50:38.841Z,34.42
2024-03-05T19:53:09.346Z,34.32
2024-03-05T19:55:41.172Z,34.46
2024-03-05T19:58:11.139Z,34.41
2024-03-05T20:00:40.001Z,34.38
2024-03-05T20:03:09.863Z,34.40
2024-03-05T20:05:40.338Z,34.45
2024-03-05T20:08:10.197Z,34.49
2024-03-05T20:10:44.004Z,34.59
2024-03-05T20:13:13.073Z,34.61
2024-03-05T20:15:43.633Z,34.52
2024-03-05T20:18:13.781Z,34.57
2024-03-05T20:20:44.976Z,34.69
2024-03-05T20:23:13.327Z,34.71
2024-03-05T20:25:43.136Z,34.73
2024-03-05T20:28:13.338Z,34.70
2024-03-05T20:30:42.667Z,34.79
2024-03-05T20:33:12.919Z,34.82
2024-03-05T20:35:43.137Z,34.80
2024-03-05T20:38:13.151Z,34.89
2024-03-05T20:40:47.049Z,34.88
2024-03-05T20:43:15.343Z,34.96
2024-03-05T20:45:44.941Z,34.96
2024-03-05T20:48:13.365Z,35.05
2024-03-05T20:50:44.586Z,35.00
2024-03-05T20:53:13.778Z,34.96
2024-03-05T20:55:44.596Z,34.92
2024-03-05T20:58:12.884Z,34.90
2024-03-05T21:00:43.975Z,34.97
2024-03-05T21:03:13.040Z,35.21
2024-03-05T21:05:43.595Z,35.36
2024-03-05T21:08:12.400Z,35.47
2024-03-05T21:10:44.323Z,35.54
2024-03-05T21:13:14.402Z,35.52
2024-03-05T21:15:45.639Z,35.46
2024-03-05T21:18:14.544Z,35.54
2024-03-05T21:20:44.644Z,35.56
2024-03-05T21:23:16.794Z,35.57
2024-03-05T21:26:03.060Z,35.76
2024-03-05T21:28:38.436Z,35.79
2024-03-05T21:31:06.725Z,35.86
2024-03-05T21:33:38.791Z,35.79
2024-03-05T21:36:08.702Z,35.86
2024-03-05T21:38:38.251Z,35.95
2024-03-05T21:41:06.978Z,36.01
2024-03-05T21:43:38.769Z,36.11
2024-03-05T21:46:07.141Z,36.11
2024-03-05T21:48:38.272Z,36.18
2024-03-05T21:51:12.697Z,36.08
2024-03-05T21:53:45.784Z,36.17
2024-03-05T21:56:14.152Z,36.25
2024-03-05T21:58:45.431Z,36.21
2024-03-05T22:01:14.467Z,36.21
2024-03-05T22:03:44.760Z,36.19
2024-03-05T22:06:19.815Z,36.20
2024-03-05T22:08:54.837Z,36.21
2024-03-05T22:11:25.865Z,36.08
2024-03-05T22:13:55.758Z,36.24
2024-03-05T22:16:24.076Z,36.16
2024-03-05T22:18:57.214Z,36.20
2024-03-05T22:21:25.506Z,36.03
2024-03-05T22:23:55.077Z,36.12
2024-03-05T22:26:24.575Z,36.11
2024-03-05T22:28:57.560Z,36.10
2024-03-05T22:31:26.571Z,36.11
2024-03-05T22:33:57.718Z,36.13
2024-03-05T22:36:26.230Z,36.11
2024-03-05T22:38:55.788Z,36.06
2024-03-05T22:41:24.862Z,36.10
2024-03-05T22:43:57.653Z,36.07
2024-03-05T22:46:26.184Z,36.12
2024-03-05T22:48:55.865Z,36.10
2024-03-05T22:51:24.878Z,36.19
2024-03-05T22:53:54.910Z,36.08
2024-03-05T22:56:23.669Z,36.11
2024-03-05T22:58:54.602Z,36.21
2024-03-05T23:01:24.199Z,36.10
2024-03-05T23:03:53.940Z,36.14
2024-03-05T23:06:25.479Z,36.16
2024-03-05T23:08:57.529Z,36.11
2024-03-05T23:11:27.495Z,36.25
2024-03-05T23:13:58.383Z,36.21
2024-03-05T23:16:26.850Z,36.12
2024-03-05T23:18:57.198Z,36.22
2024-03-05T23:21:27.411Z,36.16
2024-03-05T23:23:56.898Z,36.27
2024-03-05T23:26:26.798Z,36.21
2024-03-05T23:28:59.437Z,36.29
2024-03-05T23:31:29.233Z,36.32
2024-03-05T23:33:58.903Z,36.21
2024-03-05T23:36:28.530Z,36.35
2024-03-05T23:38:58.139Z,36.33
2024-03-05T23:41:31.954Z,36.46
2024-03-05T23:44:03.324Z,36.45
2024-03-05T23:46:33.192Z,36.39
2024-03-05T23:49:02.835Z,36.40
2024-03-05T23:51:33.155Z,36.49
2024-03-05T23:54:03.158Z,36.44
2024-03-05T23:56:32.710Z,36.34
2024-03-05T23:59:03.112Z,36.36
